Time;durP1;ratioP1;P1;durP2;ratioP2;P2;SDS_P1;SDS_P2;PMS_P1;PMS_P2;Temp;Humidity;BMP_temperature;BMP_pressure;BME280_temperature;BME280_humidity;BME280_pressure;Samples;Min_cycle;Max_cycle;Signal;HPM_P1;HPM_P2
2020/12/09 00:00:58;;;;;;;28.20;17.70;;;;;;;;;;5073940;28;20201;-81
2020/12/09 00:03:25;;;;;;;26.58;16.85;;;;;;;;;;5074047;28;20213;-80
2020/12/09 00:05:52;;;;;;;28.50;18.38;;;;;;;;;;5077077;28;20694;-78
2020/12/09 00:08:19;;;;;;;31.17;18.20;;;;;;;;;;5083451;28;20201;-79
2020/12/09 00:10:45;;;;;;;28.25;17.48;;;;;;;;;;5091956;28;20196;-77
2020/12/09 00:13:12;;;;;;;26.42;17.77;;;;;;;;;;5091698;28;20204;-79
2020/12/09 00:15:39;;;;;;;29.40;17.02;;;;;;;;;;5091870;28;20304;-78
2020/12/09 00:18:07;;;;;;;29.52;17.63;;;;;;;;;;5075455;28;20222;-77
2020/12/09 00:20:33;;;;;;;27.58;18.10;;;;;;;;;;5073475;28;20220;-76
2020/12/09 00:23:00;;;;;;;29.60;17.52;;;;;;;;;;5073007;28;20216;-77
2020/12/09 00:25:27;;;;;;;26.13;18.40;;;;;;;;;;5073687;28;20220;-77
2020/12/09 00:27:54;;;;;;;24.58;16.65;;;;;;;;;;5077295;28;20193;-78
2020/12/09 00:30:22;;;;;;;27.30;17.63;;;;;;;;;;5082899;28;20205;-80
2020/12/09 00:32:49;;;;;;;31.90;17.35;;;;;;;;;;5091429;28;20211;-77
2020/12/09 00:35:16;;;;;;;26.55;18.17;;;;;;;;;;5091531;28;20215;-77
2020/12/09 00:37:43;;;;;;;26.45;18.30;;;;;;;;;;5090512;28;20201;-77
2020/12/09 00:40:10;;;;;;;29.30;17.60;;;;;;;;;;5074903;28;20221;-78
2020/12/09 00:42:37;;;;;;;27.73;17.42;;;;;;;;;;5073622;28;20204;-78
2020/12/09 00:45:04;;;;;;;25.27;16.55;;;;;;;;;;5072221;28;20228;-76
2020/12/09 00:47:31;;;;;;;31.65;19.60;;;;;;;;;;5072954;28;20225;-77
2020/12/09 00:50:27;;;;;;;26.90;16.80;;;;;;;;;;5077138;28;20297;-79
2020/12/09 00:52:46;;;;;;;28.48;17.92;;;;;;;;;;5083783;28;20193;-78
2020/12/09 00:55:13;;;;;;;35.42;19.40;;;;;;;;;;5091449;28;20212;-78
2020/12/09 00:57:40;;;;;;;27.42;18.23;;;;;;;;;;5091262;28;20220;-76
2020/12/09 01:00:07;;;;;;;31.02;18.33;;;;;;;;;;5090526;28;20593;-77
2020/12/09 01:02:34;;;;;;;24.58;16.50;;;;;;;;;;5073435;28;20200;-77
2020/12/09 01:05:01;;;;;;;24.73;15.85;;;;;;;;;;5073334;28;20219;-76
2020/12/09 01:07:28;;;;;;;28.33;17.20;;;;;;;;;;5073604;28;20746;-76
2020/12/09 01:09:55;;;;;;;30.55;18.92;;;;;;;;;;5073463;28;20372;-78
2020/12/09 01:12:22;;;;;;;23.42;16.27;;;;;;;;;;5076924;28;20639;-77
2020/12/09 01:14:49;;;;;;;28.80;18.38;;;;;;;;;;5084842;28;20216;-77
2020/12/09 01:17:18;;;;;;;26.17;17.38;;;;;;;;;;5091188;28;20298;-78
2020/12/09 01:19:44;;;;;;;26.20;17.77;;;;;;;;;;5090729;28;20653;-78
2020/12/09 01:22:11;;;;;;;30.15;17.60;;;;;;;;;;5090198;28;20276;-76
2020/12/09 01:24:38;;;;;;;27.25;18.15;;;;;;;;;;5072946;28;20637;-76
2020/12/09 01:27:06;;;;;;;27.58;17.48;;;;;;;;;;5072933;28;20634;-80
2020/12/09 01:29:32;;;;;;;29.65;18.45;;;;;;;;;;5073220;28;20208;-77
2020/12/09 01:31:59;;;;;;;24.15;17.25;;;;;;;;;;5073234;28;20201;-77
2020/12/09 01:34:26;;;;;;;29.30;17.85;;;;;;;;;;5076833;28;20194;-77
2020/12/09 01:36:54;;;;;;;27.98;17.88;;;;;;;;;;5076335;28;20690;-77
2020/12/09 01:39:21;;;;;;;23.75;16.90;;;;;;;;;;5073047;28;20638;-79
2020/12/09 01:41:48;;;;;;;28.67;18.42;;;;;;;;;;5074085;28;20252;-77
2020/12/09 01:44:16;;;;;;;28.65;17.67;;;;;;;;;;5074119;28;20197;-76
2020/12/09 01:46:43;;;;;;;25.17;17.25;;;;;;;;;;5076726;28;20205;-76
2020/12/09 01:49:10;;;;;;;25.77;16.10;;;;;;;;;;5076596;28;20608;-76
2020/12/09 01:51:37;;;;;;;27.02;18.00;;;;;;;;;;5076348;28;20195;-79
2020/12/09 01:54:04;;;;;;;32.70;18.38;;;;;;;;;;5076473;28;20570;-76
2020/12/09 01:56:31;;;;;;;25.05;17.27;;;;;;;;;;5079881;28;20308;-79
2020/12/09 01:58:57;;;;;;;29.20;17.95;;;;;;;;;;5087997;28;20228;-77
2020/12/09 02:01:25;;;;;;;30.55;18.33;;;;;;;;;;5094437;28;20224;-78
2020/12/09 02:03:52;;;;;;;26.35;17.75;;;;;;;;;;5094008;28;20280;-76
2020/12/09 02:06:20;;;;;;;29.73;19.08;;;;;;;;;;5092949;28;20220;-79
2020/12/09 02:08:47;;;;;;;26.80;18.42;;;;;;;;;;5076161;28;20194;-76
2020/12/09 02:11:14;;;;;;;30.30;18.60;;;;;;;;;;5076548;28;20304;-76
2020/12/09 02:13:43;;;;;;;26.58;16.48;;;;;;;;;;5076138;28;20204;-78
2020/12/09 02:16:09;;;;;;;22.83;16.35;;;;;;;;;;5075077;28;20359;-76
2020/12/09 02:18:37;;;;;;;25.25;17.65;;;;;;;;;;5079562;28;20217;-77
2020/12/09 02:21:04;;;;;;;23.15;16.58;;;;;;;;;;5087763;28;20223;-76
2020/12/09 02:23:32;;;;;;;27.27;18.15;;;;;;;;;;5093680;28;20561;-77
2020/12/09 02:25:58;;;;;;;28.20;17.55;;;;;;;;;;5093745;28;20695;-78
2020/12/09 02:28:25;;;;;;;27.17;18.05;;;;;;;;;;5092234;28;20198;-77
2020/12/09 02:30:52;;;;;;;32.00;19.10;;;;;;;;;;5075777;28;20561;-77
2020/12/09 02:33:19;;;;;;;30.55;18.05;;;;;;;;;;5075700;28;20198;-77
2020/12/09 02:35:46;;;;;;;27.52;18.17;;;;;;;;;;5075496;28;20216;-76
2020/12/09 02:38:12;;;;;;;33.67;20.27;;;;;;;;;;5075896;28;20198;-77
2020/12/09 02:40:40;;;;;;;29.75;18.98;;;;;;;;;;5079600;28;20280;-78
2020/12/09 02:43:07;;;;;;;32.33;19.52;;;;;;;;;;5086446;28;20190;-77
2020/12/09 02:45:34;;;;;;;30.42;20.33;;;;;;;;;;5092829;28;20218;-78
2020/12/09 02:48:01;;;;;;;28.98;18.10;;;;;;;;;;5092810;28;20200;-77
2020/12/09 02:50:28;;;;;;;31.10;19.55;;;;;;;;;;5091675;28;20650;-77
2020/12/09 02:52:55;;;;;;;31.70;18.55;;;;;;;;;;5075398;28;20204;-76
2020/12/09 02:55:22;;;;;;;27.65;17.90;;;;;;;;;;5075340;28;20313;-79
2020/12/09 02:57:49;;;;;;;29.38;19.48;;;;;;;;;;5075210;28;20204;-77
2020/12/09 03:00:16;;;;;;;27.35;18.83;;;;;;;;;;5075507;28;20228;-76
2020/12/09 03:02:43;;;;;;;31.83;18.05;;;;;;;;;;5079282;28;20190;-76
2020/12/09 03:05:10;;;;;;;26.75;18.63;;;;;;;;;;5086811;28;21273;-78
2020/12/09 03:07:37;;;;;;;28.35;18.90;;;;;;;;;;5093101;28;20200;-76
2020/12/09 03:10:04;;;;;;;29.92;19.52;;;;;;;;;;5092736;28;20580;-76
2020/12/09 03:12:31;;;;;;;29.20;18.40;;;;;;;;;;5091414;28;20204;-77
2020/12/09 03:14:59;;;;;;;26.55;18.80;;;;;;;;;;5074872;28;20301;-77
2020/12/09 03:17:25;;;;;;;28.40;17.20;;;;;;;;;;5074637;28;20195;-76
2020/12/09 03:19:52;;;;;;;35.95;21.27;;;;;;;;;;5074323;28;20234;-78
2020/12/09 03:22:19;;;;;;;29.10;18.75;;;;;;;;;;5074007;28;20200;-76
2020/12/09 03:24:46;;;;;;;27.88;19.48;;;;;;;;;;5078411;28;20697;-76
2020/12/09 03:27:13;;;;;;;28.10;18.58;;;;;;;;;;5086642;28;20204;-76
2020/12/09 03:29:40;;;;;;;30.02;17.77;;;;;;;;;;5092537;28;20204;-77
2020/12/09 03:32:07;;;;;;;30.70;19.67;;;;;;;;;;5092154;28;20197;-77
2020/12/09 03:34:34;;;;;;;28.98;19.30;;;;;;;;;;5091019;28;20217;-76
2020/12/09 03:37:01;;;;;;;32.97;19.67;;;;;;;;;;5074454;28;20285;-76
2020/12/09 03:39:28;;;;;;;32.40;19.52;;;;;;;;;;5074377;28;20252;-76
2020/12/09 03:41:54;;;;;;;32.90;19.10;;;;;;;;;;5074310;28;20209;-77
2020/12/09 03:44:21;;;;;;;31.13;19.63;;;;;;;;;;5074609;28;20190;-76
2020/12/09 03:46:48;;;;;;;30.73;18.40;;;;;;;;;;5077754;28;20216;-76
2020/12/09 03:49:15;;;;;;;30.75;19.83;;;;;;;;;;5086301;28;20558;-77
2020/12/09 03:51:42;;;;;;;28.88;18.90;;;;;;;;;;5092263;28;20194;-76
2020/12/09 03:54:09;;;;;;;31.38;18.02;;;;;;;;;;5091872;28;20204;-78
2020/12/09 03:56:36;;;;;;;30.15;19.95;;;;;;;;;;5090663;28;20206;-77
2020/12/09 03:59:03;;;;;;;30.95;20.00;;;;;;;;;;5073768;28;20221;-77
2020/12/09 04:01:30;;;;;;;30.63;19.50;;;;;;;;;;5074097;28;20216;-76
2020/12/09 04:03:58;;;;;;;24.85;18.13;;;;;;;;;;5074026;28;20556;-77
2020/12/09 04:06:26;;;;;;;38.15;21.48;;;;;;;;;;5074151;28;20706;-76
2020/12/09 04:08:53;;;;;;;28.98;19.25;;;;;;;;;;5077396;28;20646;-76
2020/12/09 04:11:19;;;;;;;31.27;19.95;;;;;;;;;;5086167;28;20197;-76
2020/12/09 04:13:46;;;;;;;28.95;19.20;;;;;;;;;;5091779;28;20293;-76
2020/12/09 04:16:13;;;;;;;34.33;20.92;;;;;;;;;;5091738;28;20214;-77
2020/12/09 04:18:40;;;;;;;32.17;19.27;;;;;;;;;;5090296;28;20218;-76
2020/12/09 04:21:06;;;;;;;33.08;21.83;;;;;;;;;;5073579;28;20312;-76
2020/12/09 04:23:34;;;;;;;34.67;20.60;;;;;;;;;;5073786;28;20296;-77
2020/12/09 04:26:01;;;;;;;31.35;18.73;;;;;;;;;;5073529;28;20221;-76
2020/12/09 04:28:28;;;;;;;32.63;20.35;;;;;;;;;;5073966;28;20197;-78
2020/12/09 04:30:55;;;;;;;34.42;21.05;;;;;;;;;;5077487;28;20239;-76
2020/12/09 04:33:27;;;;;;;31.42;19.02;;;;;;;;;;5085423;28;20197;-77
2020/12/09 04:35:54;;;;;;;33.47;20.23;;;;;;;;;;5091533;28;20308;-76
2020/12/09 04:38:21;;;;;;;35.67;20.80;;;;;;;;;;5091330;28;20197;-79
2020/12/09 04:40:49;;;;;;;35.40;20.90;;;;;;;;;;5089183;28;20204;-76
2020/12/09 04:43:15;;;;;;;33.95;22.25;;;;;;;;;;5073582;28;20201;-76
2020/12/09 04:45:43;;;;;;;40.33;23.55;;;;;;;;;;5073519;28;20229;-76
2020/12/09 04:48:11;;;;;;;34.58;21.73;;;;;;;;;;5073515;28;20198;-75
2020/12/09 04:50:47;;;;;;;39.30;23.15;;;;;;;;;;5073886;28;20186;-76
2020/12/09 04:53:21;;;;;;;43.55;24.83;;;;;;;;;;5076929;28;20794;-77
2020/12/09 04:55:51;;;;;;;40.70;23.05;;;;;;;;;;5087703;28;20201;-76
2020/12/09 04:58:18;;;;;;;43.17;25.02;;;;;;;;;;5091200;28;20291;-76
2020/12/09 05:00:48;;;;;;;44.47;25.20;;;;;;;;;;5091400;28;20193;-77
2020/12/09 05:03:16;;;;;;;43.85;25.17;;;;;;;;;;5085059;28;20194;-79
2020/12/09 05:05:43;;;;;;;40.95;27.52;;;;;;;;;;5071834;28;20308;-76
2020/12/09 05:08:13;;;;;;;41.38;25.02;;;;;;;;;;5073406;28;20285;-76
2020/12/09 05:10:46;;;;;;;43.03;24.85;;;;;;;;;;5075197;28;20284;-76
2020/12/09 05:13:21;;;;;;;42.08;24.63;;;;;;;;;;5078698;28;20195;-76
2020/12/09 05:15:48;;;;;;;45.20;26.65;;;;;;;;;;5080756;28;20234;-76
2020/12/09 05:18:17;;;;;;;39.53;23.30;;;;;;;;;;5073257;28;20570;-76
2020/12/09 05:20:44;;;;;;;39.40;24.20;;;;;;;;;;5074493;28;20222;-75
2020/12/09 05:23:11;;;;;;;41.33;24.73;;;;;;;;;;5074815;28;20200;-77
2020/12/09 05:25:39;;;;;;;40.25;25.77;;;;;;;;;;5075178;28;20313;-79
2020/12/09 05:28:06;;;;;;;41.05;22.98;;;;;;;;;;5075601;28;20652;-77
2020/12/09 05:30:42;;;;;;;44.17;25.23;;;;;;;;;;5076837;28;20213;-79
2020/12/09 05:33:10;;;;;;;39.03;24.60;;;;;;;;;;5075600;28;20198;-78
2020/12/09 05:35:37;;;;;;;39.30;24.23;;;;;;;;;;5078659;28;20224;-77
2020/12/09 05:38:12;;;;;;;38.50;23.80;;;;;;;;;;5081379;28;20196;-76
2020/12/09 05:40:40;;;;;;;38.63;24.15;;;;;;;;;;5094032;28;20209;-76
2020/12/09 05:43:07;;;;;;;41.67;25.90;;;;;;;;;;5093288;28;20198;-76
2020/12/09 05:45:34;;;;;;;38.78;24.45;;;;;;;;;;5094856;28;20244;-79
2020/12/09 05:48:15;;;;;;;44.33;25.02;;;;;;;;;;5084574;28;20208;-78
2020/12/09 05:50:47;;;;;;;41.55;22.98;;;;;;;;;;5075579;28;20209;-78
2020/12/09 05:53:15;;;;;;;37.45;22.67;;;;;;;;;;5076353;28;20225;-79
2020/12/09 05:55:42;;;;;;;36.47;22.83;;;;;;;;;;5076151;28;20218;-78
2020/12/09 05:58:19;;;;;;;39.20;22.77;;;;;;;;;;5079179;28;20289;-79
2020/12/09 06:01:03;;;;;;;39.30;22.98;;;;;;;;;;5077983;28;20218;-78
2020/12/09 06:03:30;;;;;;;41.30;23.08;;;;;;;;;;5074003;28;20198;-78
2020/12/09 06:06:08;;;;;;;38.38;22.83;;;;;;;;;;5073566;28;20216;-79
2020/12/09 06:08:37;;;;;;;38.60;23.40;;;;;;;;;;5074081;28;20554;-78
2020/12/09 06:11:04;;;;;;;39.05;23.75;;;;;;;;;;5075414;28;20659;-78
2020/12/09 06:13:31;;;;;;;38.35;23.38;;;;;;;;;;5076367;28;20597;-80
2020/12/09 06:15:59;;;;;;;39.72;23.60;;;;;;;;;;5076000;28;20218;-79
2020/12/09 06:18:28;;;;;;;38.20;23.02;;;;;;;;;;5075830;28;20202;-81
2020/12/09 06:20:54;;;;;;;44.20;25.70;;;;;;;;;;5078109;28;20220;-78
2020/12/09 06:23:22;;;;;;;35.75;22.73;;;;;;;;;;5076116;28;20201;-78
2020/12/09 06:25:49;;;;;;;42.05;25.70;;;;;;;;;;5073592;28;20220;-78
2020/12/09 06:28:16;;;;;;;45.58;25.02;;;;;;;;;;5073500;28;20194;-78
2020/12/09 06:30:44;;;;;;;43.03;24.10;;;;;;;;;;5073729;28;20206;-77
2020/12/09 06:33:12;;;;;;;40.17;24.20;;;;;;;;;;5073893;28;20194;-78
2020/12/09 06:35:39;;;;;;;41.53;24.75;;;;;;;;;;5075543;28;20221;-77
2020/12/09 06:38:20;;;;;;;34.42;22.63;;;;;;;;;;5075749;28;20202;-77
2020/12/09 06:41:02;;;;;;;39.78;24.30;;;;;;;;;;5074714;28;20224;-79
2020/12/09 06:43:30;;;;;;;43.60;24.27;;;;;;;;;;5078759;28;20204;-77
2020/12/09 06:45:56;;;;;;;46.10;27.13;;;;;;;;;;5088915;28;20220;-78
2020/12/09 06:48:24;;;;;;;39.55;25.05;;;;;;;;;;5093720;28;20332;-78
2020/12/09 06:50:51;;;;;;;41.30;24.95;;;;;;;;;;5093380;28;20204;-78
2020/12/09 06:53:19;;;;;;;39.17;23.67;;;;;;;;;;5088342;28;20204;-78
2020/12/09 06:55:45;;;;;;;40.42;24.80;;;;;;;;;;5077455;28;20259;-79
2020/12/09 06:58:27;;;;;;;39.63;24.00;;;;;;;;;;5079622;28;20215;-78
2020/12/09 07:00:59;;;;;;;50.05;26.63;;;;;;;;;;5091770;28;20589;-78
2020/12/09 07:03:27;;;;;;;42.30;25.50;;;;;;;;;;5093019;28;20285;-77
2020/12/09 07:05:54;;;;;;;39.15;25.92;;;;;;;;;;5093128;28;20255;-79
2020/12/09 07:08:20;;;;;;;54.13;26.52;;;;;;;;;;5079232;28;20293;-79
2020/12/09 07:10:47;;;;;;;39.25;24.13;;;;;;;;;;5074101;28;20193;-77
2020/12/09 07:13:15;;;;;;;44.25;23.88;;;;;;;;;;5077498;28;20190;-77
2020/12/09 07:15:45;;;;;;;36.22;25.05;;;;;;;;;;5076586;28;20304;-78
2020/12/09 07:18:12;;;;;;;35.05;23.02;;;;;;;;;;5072347;28;20236;-79
2020/12/09 07:20:39;;;;;;;36.78;23.67;;;;;;;;;;5071233;28;20313;-79
2020/12/09 07:23:07;;;;;;;39.30;24.25;;;;;;;;;;5071961;28;20196;-78
2020/12/09 07:25:34;;;;;;;37.42;23.38;;;;;;;;;;5073266;28;20722;-76
2020/12/09 07:28:01;;;;;;;37.03;22.55;;;;;;;;;;5074655;28;20205;-77
2020/12/09 07:30:28;;;;;;;36.45;23.38;;;;;;;;;;5074590;28;20256;-78
2020/12/09 07:32:55;;;;;;;35.75;22.75;;;;;;;;;;5074050;28;20206;-76
2020/12/09 07:35:24;;;;;;;39.40;22.67;;;;;;;;;;5077192;28;20225;-76
2020/12/09 07:37:53;;;;;;;39.10;23.35;;;;;;;;;;5081634;28;20284;-78
2020/12/09 07:40:22;;;;;;;37.20;22.77;;;;;;;;;;5090883;28;20283;-79
2020/12/09 07:42:58;;;;;;;39.55;23.98;;;;;;;;;;5090527;28;20677;-77
2020/12/09 07:45:26;;;;;;;41.75;24.27;;;;;;;;;;5081046;28;20553;-79
2020/12/09 07:47:58;;;;;;;36.95;22.50;;;;;;;;;;5075146;28;20197;-79
2020/12/09 07:50:26;;;;;;;41.35;23.42;;;;;;;;;;5076861;28;21505;-78
2020/12/09 07:52:53;;;;;;;36.65;23.38;;;;;;;;;;5071410;28;20289;-79
2020/12/09 07:55:20;;;;;;;47.20;25.50;;;;;;;;;;5071324;28;20302;-76
2020/12/09 07:57:46;;;;;;;41.63;23.88;;;;;;;;;;5071841;28;20190;-77
2020/12/09 08:00:14;;;;;;;39.53;23.60;;;;;;;;;;5070955;28;20590;-78
2020/12/09 08:02:41;;;;;;;47.17;27.83;;;;;;;;;;5074032;28;20612;-86
2020/12/09 08:05:10;;;;;;;49.95;27.75;;;;;;;;;;5072141;28;20302;-84
2020/12/09 08:07:52;;;;;;;41.65;25.58;;;;;;;;;;5074027;28;20281;-83
2020/12/09 08:10:22;;;;;;;38.15;23.65;;;;;;;;;;5074285;28;20230;-77
2020/12/09 08:12:49;;;;;;;44.63;25.42;;;;;;;;;;5078724;28;20203;-77
2020/12/09 08:15:16;;;;;;;41.35;25.33;;;;;;;;;;5083180;28;20210;-77
2020/12/09 08:17:47;;;;;;;37.17;22.77;;;;;;;;;;5070830;28;20221;-77
2020/12/09 08:20:14;;;;;;;35.15;21.85;;;;;;;;;;5071102;28;20230;-77
2020/12/09 08:22:56;;;;;;;34.90;22.20;;;;;;;;;;5063809;28;20221;-77
2020/12/09 08:25:24;;;;;;;37.83;23.42;;;;;;;;;;5072745;28;20761;-77
2020/12/09 08:27:51;;;;;;;37.88;24.10;;;;;;;;;;5073469;28;20266;-77
2020/12/09 08:30:19;;;;;;;38.00;22.50;;;;;;;;;;5074560;28;20282;-77
2020/12/09 08:33:00;;;;;;;35.22;22.13;;;;;;;;;;5074953;28;20290;-77
2020/12/09 08:35:28;;;;;;;40.63;24.75;;;;;;;;;;5080530;28;20202;-77
2020/12/09 08:37:55;;;;;;;35.67;20.58;;;;;;;;;;5091223;28;20193;-77
2020/12/09 08:40:22;;;;;;;38.95;23.05;;;;;;;;;;5091133;28;20267;-77
2020/12/09 08:42:53;;;;;;;36.33;22.55;;;;;;;;;;5091806;28;20229;-77
2020/12/09 08:45:20;;;;;;;36.55;23.10;;;;;;;;;;5075872;28;20218;-76
2020/12/09 08:47:47;;;;;;;33.35;22.40;;;;;;;;;;5073341;28;20281;-77
2020/12/09 08:50:14;;;;;;;33.72;23.27;;;;;;;;;;5073512;28;20209;-78
2020/12/09 08:52:41;;;;;;;39.10;21.02;;;;;;;;;;5073530;28;20285;-76
2020/12/09 08:55:08;;;;;;;40.10;23.25;;;;;;;;;;5074691;28;20774;-79
2020/12/09 08:57:35;;;;;;;33.10;21.30;;;;;;;;;;5080229;28;20276;-79
2020/12/09 09:00:03;;;;;;;34.65;21.70;;;;;;;;;;5091416;28;20316;-79
2020/12/09 09:02:30;;;;;;;34.67;22.83;;;;;;;;;;5091054;28;20193;-79
2020/12/09 09:04:57;;;;;;;32.95;19.95;;;;;;;;;;5091228;28;20270;-79
2020/12/09 09:07:24;;;;;;;32.75;21.30;;;;;;;;;;5077368;28;20205;-79
2020/12/09 09:09:51;;;;;;;36.78;23.00;;;;;;;;;;5073158;28;20249;-80
2020/12/09 09:12:18;;;;;;;36.00;22.70;;;;;;;;;;5073354;28;20199;-79
2020/12/09 09:14:45;;;;;;;32.30;21.00;;;;;;;;;;5073116;28;20215;-79
2020/12/09 09:17:13;;;;;;;35.13;20.63;;;;;;;;;;5076019;28;20214;-78
2020/12/09 09:19:40;;;;;;;35.08;21.70;;;;;;;;;;5074565;28;20620;-78
2020/12/09 09:22:07;;;;;;;35.65;22.73;;;;;;;;;;5070633;28;20225;-79
2020/12/09 09:24:34;;;;;;;35.45;24.25;;;;;;;;;;5069237;28;20646;-79
2020/12/09 09:27:01;;;;;;;39.53;23.40;;;;;;;;;;5071214;28;20206;-79
2020/12/09 09:29:32;;;;;;;36.95;21.58;;;;;;;;;;5072138;28;20205;-79
2020/12/09 09:31:59;;;;;;;31.98;21.52;;;;;;;;;;5073111;28;20289;-79
2020/12/09 09:34:26;;;;;;;34.80;22.70;;;;;;;;;;5072884;28;20214;-79
2020/12/09 09:36:53;;;;;;;37.13;23.15;;;;;;;;;;5074642;28;20200;-78
2020/12/09 09:39:20;;;;;;;38.70;23.83;;;;;;;;;;5087601;28;20679;-79
2020/12/09 09:41:47;;;;;;;33.97;21.98;;;;;;;;;;5073790;28;20183;-79
2020/12/09 09:44:14;;;;;;;34.28;23.15;;;;;;;;;;5070441;28;20191;-80
2020/12/09 09:46:41;;;;;;;36.10;23.92;;;;;;;;;;5070988;28;20199;-80
2020/12/09 09:49:08;;;;;;;36.08;23.10;;;;;;;;;;5072291;28;20560;-80
2020/12/09 09:51:35;;;;;;;37.65;23.70;;;;;;;;;;5072790;28;20542;-79
2020/12/09 09:54:02;;;;;;;34.63;24.90;;;;;;;;;;5072463;28;20282;-79
2020/12/09 09:56:30;;;;;;;36.42;23.33;;;;;;;;;;5075737;28;20301;-80
2020/12/09 09:58:57;;;;;;;40.17;23.70;;;;;;;;;;5079507;28;20720;-79
2020/12/09 10:01:23;;;;;;;38.08;22.75;;;;;;;;;;5090789;28;20625;-78
2020/12/09 10:03:50;;;;;;;31.02;22.17;;;;;;;;;;5081901;28;20244;-79
2020/12/09 10:06:17;;;;;;;33.75;22.60;;;;;;;;;;5074098;28;20217;-79
2020/12/09 10:08:45;;;;;;;38.28;24.30;;;;;;;;;;5074104;28;20602;-78
2020/12/09 10:11:12;;;;;;;34.05;23.60;;;;;;;;;;5076220;28;20239;-78
2020/12/09 10:13:39;;;;;;;39.75;23.27;;;;;;;;;;5075759;28;20281;-77
2020/12/09 10:16:06;;;;;;;35.42;23.75;;;;;;;;;;5075520;28;20264;-78
2020/12/09 10:18:33;;;;;;;33.38;20.90;;;;;;;;;;5075770;28;20277;-80
2020/12/09 10:20:59;;;;;;;31.67;20.98;;;;;;;;;;5079113;28;20331;-78
2020/12/09 10:23:26;;;;;;;40.53;24.23;;;;;;;;;;5077590;28;20194;-79
2020/12/09 10:25:54;;;;;;;41.03;24.30;;;;;;;;;;5073484;28;20209;-80
2020/12/09 10:28:21;;;;;;;36.35;23.98;;;;;;;;;;5080117;28;20190;-76
2020/12/09 10:30:48;;;;;;;40.08;24.80;;;;;;;;;;5073178;28;20216;-76
2020/12/09 10:33:15;;;;;;;37.78;22.33;;;;;;;;;;5075793;28;20534;-77
2020/12/09 10:35:44;;;;;;;37.42;25.25;;;;;;;;;;5075350;28;20207;-78
2020/12/09 10:38:11;;;;;;;42.80;27.38;;;;;;;;;;5075700;28;20190;-76
2020/12/09 10:40:38;;;;;;;38.08;23.35;;;;;;;;;;5073965;28;20309;-77
2020/12/09 10:43:06;;;;;;;41.58;24.75;;;;;;;;;;5079198;28;20194;-78
2020/12/09 10:45:32;;;;;;;41.08;24.70;;;;;;;;;;5074485;28;20295;-78
2020/12/09 10:47:59;;;;;;;44.85;28.27;;;;;;;;;;5072515;28;20244;-77
2020/12/09 10:50:26;;;;;;;43.90;26.42;;;;;;;;;;5072978;28;20709;-77
2020/12/09 10:52:53;;;;;;;44.40;26.55;;;;;;;;;;5072982;28;20226;-75
2020/12/09 10:55:23;;;;;;;47.33;28.63;;;;;;;;;;5075160;28;20219;-75
2020/12/09 10:57:50;;;;;;;43.35;27.55;;;;;;;;;;5075003;28;20722;-78
2020/12/09 11:00:17;;;;;;;47.80;28.15;;;;;;;;;;5074913;28;20574;-76
2020/12/09 11:02:44;;;;;;;52.42;29.55;;;;;;;;;;5075187;28;20634;-77
2020/12/09 11:05:11;;;;;;;47.40;29.20;;;;;;;;;;5078814;28;20275;-75
2020/12/09 11:07:38;;;;;;;44.80;27.35;;;;;;;;;;5073891;28;20289;-75
2020/12/09 11:10:05;;;;;;;43.97;26.80;;;;;;;;;;5072767;28;20629;-77
2020/12/09 11:12:32;;;;;;;46.92;27.70;;;;;;;;;;5072060;28;20277;-74
2020/12/09 11:14:59;;;;;;;44.25;28.35;;;;;;;;;;5072676;28;20287;-75
2020/12/09 11:17:27;;;;;;;42.00;27.15;;;;;;;;;;5075194;28;20232;-74
2020/12/09 11:19:54;;;;;;;49.30;28.38;;;;;;;;;;5078438;28;20225;-75
2020/12/09 11:22:21;;;;;;;48.60;28.80;;;;;;;;;;5073322;28;20195;-76
2020/12/09 11:24:48;;;;;;;47.58;27.88;;;;;;;;;;5072159;28;20222;-76
2020/12/09 11:27:15;;;;;;;44.63;26.63;;;;;;;;;;5072698;28;20293;-78
2020/12/09 11:29:44;;;;;;;41.67;24.70;;;;;;;;;;5072717;28;20602;-75
2020/12/09 11:32:11;;;;;;;44.72;25.23;;;;;;;;;;5074610;28;20190;-76
2020/12/09 11:34:38;;;;;;;38.65;23.20;;;;;;;;;;5074250;28;20221;-75
2020/12/09 11:37:05;;;;;;;46.20;26.63;;;;;;;;;;5074365;28;20197;-77
2020/12/09 11:39:32;;;;;;;35.97;22.98;;;;;;;;;;5075062;28;20250;-75
2020/12/09 11:41:59;;;;;;;36.97;23.73;;;;;;;;;;5078254;28;20285;-77
2020/12/09 11:44:26;;;;;;;37.58;22.80;;;;;;;;;;5068459;28;20206;-77
2020/12/09 11:46:53;;;;;;;39.70;23.27;;;;;;;;;;5068163;28;20631;-77
2020/12/09 11:49:20;;;;;;;41.00;24.42;;;;;;;;;;5068150;28;20221;-79
2020/12/09 11:51:50;;;;;;;40.78;23.55;;;;;;;;;;5067567;28;20297;-77
2020/12/09 11:54:17;;;;;;;41.95;25.30;;;;;;;;;;5070462;28;20195;-75
2020/12/09 11:56:44;;;;;;;30.80;21.48;;;;;;;;;;5073834;28;20191;-76
2020/12/09 11:59:11;;;;;;;36.85;22.17;;;;;;;;;;5067056;28;20282;-74
2020/12/09 12:01:38;;;;;;;38.50;23.67;;;;;;;;;;5068207;28;20359;-76
2020/12/09 12:04:05;;;;;;;34.88;22.98;;;;;;;;;;5067586;28;20190;-76
2020/12/09 12:06:32;;;;;;;38.17;22.77;;;;;;;;;;5068496;28;20226;-77
2020/12/09 12:08:59;;;;;;;38.85;23.33;;;;;;;;;;5069339;28;20942;-77
2020/12/09 12:11:27;;;;;;;34.83;22.80;;;;;;;;;;5070124;28;20198;-79
2020/12/09 12:13:54;;;;;;;33.75;20.92;;;;;;;;;;5069377;28;20592;-77
2020/12/09 12:16:23;;;;;;;35.17;20.77;;;;;;;;;;5071643;28;20315;-75
2020/12/09 12:18:50;;;;;;;34.10;22.08;;;;;;;;;;5073185;28;20189;-75
2020/12/09 12:21:17;;;;;;;33.33;21.48;;;;;;;;;;5067885;28;20462;-77
2020/12/09 12:23:45;;;;;;;34.15;22.85;;;;;;;;;;5068268;28;20598;-77
2020/12/09 12:26:15;;;;;;;34.28;22.77;;;;;;;;;;5068248;28;20611;-75
2020/12/09 12:28:42;;;;;;;37.08;22.92;;;;;;;;;;5068466;28;20194;-83
2020/12/09 12:31:11;;;;;;;35.33;21.23;;;;;;;;;;5069504;28;20281;-76
2020/12/09 12:33:38;;;;;;;32.13;20.30;;;;;;;;;;5067501;28;20194;-79
2020/12/09 12:36:05;;;;;;;33.58;21.70;;;;;;;;;;5069629;28;20216;-77
2020/12/09 12:38:31;;;;;;;35.28;21.88;;;;;;;;;;5070343;28;20220;-77
2020/12/09 12:40:58;;;;;;;32.58;20.85;;;;;;;;;;5076381;28;20745;-77
2020/12/09 12:43:26;;;;;;;30.77;19.40;;;;;;;;;;5071214;28;20204;-76
2020/12/09 12:45:53;;;;;;;31.95;20.23;;;;;;;;;;5070030;28;20245;-76
2020/12/09 12:48:20;;;;;;;33.30;20.10;;;;;;;;;;5071128;28;20221;-76
2020/12/09 12:50:47;;;;;;;29.48;18.83;;;;;;;;;;5071138;28;20194;-75
2020/12/09 12:53:14;;;;;;;33.75;20.83;;;;;;;;;;5072956;28;20204;-77
2020/12/09 12:55:41;;;;;;;36.33;21.13;;;;;;;;;;5073419;28;20214;-76
2020/12/09 12:58:08;;;;;;;34.95;22.90;;;;;;;;;;5071836;28;20201;-75
2020/12/09 13:00:35;;;;;;;37.63;21.27;;;;;;;;;;5073493;28;20228;-75
2020/12/09 13:03:02;;;;;;;32.78;21.35;;;;;;;;;;5076594;28;20594;-75
2020/12/09 13:05:29;;;;;;;39.30;23.77;;;;;;;;;;5084688;28;20233;-75
2020/12/09 13:07:56;;;;;;;34.45;21.58;;;;;;;;;;5070648;28;20277;-76
2020/12/09 13:10:23;;;;;;;33.58;21.52;;;;;;;;;;5070593;28;20225;-75
2020/12/09 13:12:51;;;;;;;38.40;22.42;;;;;;;;;;5070828;28;20230;-74
2020/12/09 13:15:18;;;;;;;36.33;21.50;;;;;;;;;;5071874;28;20217;-76
2020/12/09 13:17:46;;;;;;;35.45;22.27;;;;;;;;;;5073292;28;20234;-76
2020/12/09 13:20:12;;;;;;;36.10;22.30;;;;;;;;;;5072527;28;20280;-76
2020/12/09 13:22:39;;;;;;;33.65;20.08;;;;;;;;;;5072872;28;20218;-76
2020/12/09 13:25:07;;;;;;;34.85;20.73;;;;;;;;;;5076225;28;20206;-75
2020/12/09 13:27:34;;;;;;;31.80;18.35;;;;;;;;;;5071080;28;20295;-75
2020/12/09 13:30:00;;;;;;;33.75;19.20;;;;;;;;;;5070544;28;20193;-75
2020/12/09 13:32:27;;;;;;;31.77;19.45;;;;;;;;;;5074063;28;20190;-76
2020/12/09 13:34:55;;;;;;;29.17;18.88;;;;;;;;;;5073121;28;20299;-78
2020/12/09 13:37:22;;;;;;;36.13;20.90;;;;;;;;;;5076326;28;20593;-76
2020/12/09 13:39:49;;;;;;;30.35;19.98;;;;;;;;;;5076216;28;20300;-75
2020/12/09 13:42:16;;;;;;;33.75;20.08;;;;;;;;;;5076282;28;20285;-76
2020/12/09 13:44:42;;;;;;;35.35;20.65;;;;;;;;;;5075898;28;20280;-75
2020/12/09 13:47:09;;;;;;;31.95;19.58;;;;;;;;;;5080196;28;20285;-78
2020/12/09 13:49:37;;;;;;;37.72;20.70;;;;;;;;;;5085017;28;20296;-77
2020/12/09 13:52:04;;;;;;;30.20;19.20;;;;;;;;;;5074312;28;20210;-75
2020/12/09 13:54:31;;;;;;;36.60;19.65;;;;;;;;;;5072939;28;20293;-77
2020/12/09 13:56:58;;;;;;;35.92;20.50;;;;;;;;;;5073897;28;20221;-76
2020/12/09 13:59:25;;;;;;;34.28;20.10;;;;;;;;;;5070473;28;20199;-83
2020/12/09 14:01:52;;;;;;;30.52;19.48;;;;;;;;;;5078298;28;20692;-79
2020/12/09 14:04:19;;;;;;;29.63;18.65;;;;;;;;;;5084059;28;20202;-77
2020/12/09 14:06:46;;;;;;;33.35;18.90;;;;;;;;;;5071343;28;20757;-76
2020/12/09 14:09:13;;;;;;;31.30;19.00;;;;;;;;;;5071365;28;20327;-75
2020/12/09 14:11:41;;;;;;;32.80;19.63;;;;;;;;;;5071849;28;20191;-76
2020/12/09 14:14:08;;;;;;;32.10;18.92;;;;;;;;;;5074052;28;20202;-75
2020/12/09 14:16:37;;;;;;;30.42;18.48;;;;;;;;;;5074757;28;20259;-76
2020/12/09 14:19:07;;;;;;;31.23;19.67;;;;;;;;;;5075064;28;20202;-75